createdAt,value
2018-08-20T00:00:53.962Z,100331.48
2018-08-20T00:03:22.632Z,100328.64
2018-08-20T00:05:56.029Z,100322.34
2018-08-20T00:08:25.478Z,100327.03
2018-08-20T00:10:58.178Z,100315.39
2018-08-20T00:13:27.410Z,100316.72
2018-08-20T00:15:56.620Z,100313.91
2018-08-20T00:18:30.408Z,100305.03
2018-08-20T00:20:58.934Z,100305.03
2018-08-20T00:23:27.512Z,100297.36
2018-08-20T00:25:58.271Z,100295.75
2018-08-20T00:28:27.657Z,100290.41
2018-08-20T00:30:56.245Z,100290.78
2018-08-20T00:33:24.877Z,100287.45
2018-08-20T00:35:53.482Z,100283.83
2018-08-20T00:38:22.035Z,100288.52
2018-08-20T00:40:50.562Z,100277.48
2018-08-20T00:43:19.142Z,100282.69
2018-08-20T00:45:47.741Z,100282.55
2018-08-20T00:48:16.406Z,100281.70
2018-08-20T00:50:45.056Z,100281.22
2018-08-20T00:53:13.558Z,100278.89
2018-08-20T00:55:42.170Z,100277.07
2018-08-20T00:58:10.764Z,100270.25
2018-08-20T01:00:39.389Z,100268.77
2018-08-20T01:03:08.127Z,100266.44
2018-08-20T01:05:36.759Z,100265.96
2018-08-20T01:08:05.487Z,100268.63
2018-08-20T01:10:33.995Z,100267.78
2018-08-20T01:13:02.596Z,100270.31
2018-08-20T01:15:31.194Z,100273.36
2018-08-20T01:17:59.880Z,100279.19
2018-08-20T01:20:28.468Z,100274.70
2018-08-20T01:22:57.249Z,100284.06
2018-08-20T01:25:25.935Z,100288.06
2018-08-20T01:27:54.462Z,100287.69
2018-08-20T01:30:22.942Z,100291.08
2018-08-20T01:32:52.911Z,100289.03
2018-08-20T01:35:25.954Z,100280.87
2018-08-20T01:37:54.536Z,100285.39
2018-08-20T01:40:23.071Z,100281.66
2018-08-20T01:42:52.522Z,100286.91
2018-08-20T01:45:21.107Z,100288.62
2018-08-20T01:47:49.734Z,100280.73
2018-08-20T01:50:18.246Z,100283.89
2018-08-20T01:52:46.800Z,100278.89
2018-08-20T01:55:15.418Z,100278.89
2018-08-20T01:57:44.934Z,100279.60
2018-08-20T02:00:13.569Z,100283.61
2018-08-20T02:02:42.195Z,100286.28
2018-08-20T02:05:11.658Z,100282.62
2018-08-20T02:07:40.297Z,100286.49
2018-08-20T02:10:08.878Z,100283.27
2018-08-20T02:12:37.538Z,100287.28
2018-08-20T02:15:06.234Z,100283.89
2018-08-20T02:17:34.931Z,100283.55
2018-08-20T02:20:03.875Z,100284.16
2018-08-20T02:22:32.872Z,100279.81
2018-08-20T02:25:01.395Z,100279.16
2018-08-20T02:27:29.926Z,100276.48
2018-08-20T02:29:58.542Z,100279.16
2018-08-20T02:32:27.092Z,100275.53
2018-08-20T02:34:55.731Z,100277.77
2018-08-20T02:37:31.023Z,100276.70
2018-08-20T02:40:00.166Z,100269.44
2018-08-20T02:42:28.874Z,100271.56
2018-08-20T02:44:58.114Z,100260.49
2018-08-20T02:47:26.691Z,100259.22
2018-08-20T02:49:55.308Z,100248.33
2018-08-20T02:52:23.948Z,100244.94
2018-08-20T02:54:52.532Z,100248.16
2018-08-20T02:57:21.163Z,100242.40
2018-08-20T02:59:49.901Z,100244.77
2018-08-20T03:02:18.531Z,100231.78
2018-08-20T03:04:47.119Z,100234.11
2018-08-20T03:07:15.649Z,100234.00
2018-08-20T03:09:44.233Z,100233.80
2018-08-20T03:12:12.816Z,100236.60
2018-08-20T03:14:41.341Z,100240.95
2018-08-20T03:17:09.983Z,100238.02
2018-08-20T03:19:38.565Z,100234.00
2018-08-20T03:22:07.389Z,100237.67
2018-08-20T03:24:36.087Z,100244.41
2018-08-20T03:27:04.700Z,100248.48
2018-08-20T03:29:33.413Z,100253.34
2018-08-20T03:32:02.164Z,100249.61
2018-08-20T03:34:30.882Z,100250.57
2018-08-20T03:36:59.503Z,100248.62
2018-08-20T03:39:28.228Z,100247.55
2018-08-20T03:41:56.746Z,100245.50
2018-08-20T03:44:25.520Z,100252.05
2018-08-20T03:46:54.161Z,100252.55
2018-08-20T03:49:22.714Z,100256.19
2018-08-20T03:51:51.268Z,100251.83
2018-08-20T03:54:19.899Z,100259.50
2018-08-20T03:56:48.496Z,100275.88
2018-08-20T03:59:31.150Z,100276.86
2018-08-20T04:02:02.171Z,100279.53
2018-08-20T04:04:30.927Z,100288.80
2018-08-20T04:07:01.978Z,100293.28
2018-08-20T04:09:31.467Z,100294.54
2018-08-20T04:12:00.872Z,100294.54
2018-08-20T04:14:29.506Z,100294.41
2018-08-20T04:16:58.992Z,100294.67
2018-08-20T04:19:29.092Z,100298.55
2018-08-20T04:21:58.063Z,100294.54
2018-08-20T04:24:26.658Z,100303.64
2018-08-20T04:26:55.393Z,100300.02
2018-08-20T04:29:23.884Z,100304.36
2018-08-20T04:31:52.546Z,100300.36
2018-08-20T04:34:21.145Z,100306.05
2018-08-20T04:36:50.443Z,100305.70
2018-08-20T04:39:19.680Z,100304.36
2018-08-20T04:41:48.982Z,100307.76
2018-08-20T04:44:17.581Z,100303.11
2018-08-20T04:46:46.207Z,100302.97
2018-08-20T04:49:14.892Z,100309.52
2018-08-20T04:51:43.404Z,100303.11
2018-08-20T04:54:11.957Z,100307.84
2018-08-20T04:56:40.561Z,100309.89
2018-08-20T04:59:09.064Z,100302.36
2018-08-20T05:01:38.147Z,100308.18
2018-08-20T05:04:07.491Z,100315.23
2018-08-20T05:06:36.037Z,100298.03
2018-08-20T05:09:06.179Z,100305.76
2018-08-20T05:11:34.743Z,100294.56
2018-08-20T05:14:03.538Z,100306.92
2018-08-20T05:16:32.162Z,100310.31
2018-08-20T05:19:01.240Z,100308.98
2018-08-20T05:21:29.784Z,100317.08
2018-08-20T05:23:58.532Z,100321.19
2018-08-20T05:26:27.113Z,100318.52
2018-08-20T05:28:55.696Z,100316.54
2018-08-20T05:31:24.280Z,100322.37
2018-08-20T05:33:53.479Z,100325.25
2018-08-20T05:36:22.161Z,100326.56
2018-08-20T05:38:50.665Z,100326.19
2018-08-20T05:41:19.286Z,100322.63
2018-08-20T05:43:47.827Z,100319.63
2018-08-20T05:46:16.495Z,100319.87
2018-08-20T05:48:45.282Z,100323.74
2018-08-20T05:51:13.969Z,100326.97
2018-08-20T05:53:42.566Z,100325.02
2018-08-20T05:56:11.236Z,100324.74
2018-08-20T05:58:39.870Z,100323.13
2018-08-20T06:01:08.609Z,100322.08
2018-08-20T06:03:37.788Z,100325.05
2018-08-20T06:06:07.055Z,100327.11
2018-08-20T06:08:35.616Z,100329.68
2018-08-20T06:11:04.309Z,100329.00
2018-08-20T06:13:33.035Z,100330.61
2018-08-20T06:16:01.694Z,100326.49
2018-08-20T06:18:30.843Z,100334.62
2018-08-20T06:20:59.522Z,100331.33
2018-08-20T06:23:28.106Z,100331.08
2018-08-20T06:25:56.631Z,100336.94
2018-08-20T06:28:26.298Z,100332.71
2018-08-20T06:30:55.595Z,100340.45
2018-08-20T06:33:24.894Z,100346.77
2018-08-20T06:35:53.435Z,100350.10
2018-08-20T06:38:22.063Z,100347.47
2018-08-20T06:40:50.747Z,100354.22
2018-08-20T06:43:19.738Z,100353.09
2018-08-20T06:45:48.321Z,100358.72
2018-08-20T06:48:16.835Z,100359.20
2018-08-20T06:50:45.401Z,100365.90
2018-08-20T06:53:14.013Z,100368.20
2018-08-20T06:55:42.653Z,100359.48
2018-08-20T06:58:11.339Z,100362.85
2018-08-20T07:00:39.933Z,100367.51
2018-08-20T07:03:08.509Z,100366.65
2018-08-20T07:05:37.152Z,100371.06
2018-08-20T07:08:05.669Z,100369.31
2018-08-20T07:10:42.332Z,100381.76
2018-08-20T07:13:23.771Z,100384.97
2018-08-20T07:15:52.410Z,100388.28
2018-08-20T07:18:21.042Z,100392.38
2018-08-20T07:20:49.677Z,100392.05
2018-08-20T07:23:18.543Z,100390.13
2018-08-20T07:25:47.458Z,100385.23
2018-08-20T07:28:16.246Z,100390.57
2018-08-20T07:30:44.967Z,100388.89
2018-08-20T07:33:13.579Z,100379.87
2018-08-20T07:35:42.115Z,100387.83
2018-08-20T07:38:11.011Z,100391.56
2018-08-20T07:40:39.674Z,100398.94
2018-08-20T07:43:08.358Z,100400.55
2018-08-20T07:45:37.042Z,100398.99
2018-08-20T07:48:05.815Z,100407.20
2018-08-20T07:50:34.619Z,100404.47
2018-08-20T07:53:03.816Z,100397.84
2018-08-20T07:55:32.686Z,100403.94
2018-08-20T07:58:01.698Z,100406.98
2018-08-20T08:00:30.214Z,100417.20
2018-08-20T08:02:58.760Z,100419.77
2018-08-20T08:05:28.374Z,100419.89
2018-08-20T08:07:57.057Z,100426.69
2018-08-20T08:10:25.659Z,100426.03
2018-08-20T08:12:54.483Z,100432.92
2018-08-20T08:15:23.211Z,100433.25
2018-08-20T08:17:53.187Z,100425.43
2018-08-20T08:20:23.449Z,100426.58
2018-08-20T08:22:52.205Z,100428.80
2018-08-20T08:25:20.924Z,100434.94
2018-08-20T08:27:49.663Z,100433.34
2018-08-20T08:30:19.378Z,100449.16
2018-08-20T08:32:48.265Z,100439.27
2018-08-20T08:35:17.097Z,100440.63
2018-08-20T08:37:45.837Z,100445.95
2018-08-20T08:40:17.076Z,100438.00
2018-08-20T08:42:45.713Z,100436.59
2018-08-20T08:45:16.716Z,100437.92
2018-08-20T08:47:46.030Z,100431.96
2018-08-20T08:50:16.071Z,100445.34
2018-08-20T08:52:45.107Z,100440.23
2018-08-20T08:55:13.849Z,100446.41
2018-08-20T08:57:43.867Z,100436.39
2018-08-20T09:00:16.856Z,100435.26
2018-08-20T09:02:45.911Z,100441.19
2018-08-20T09:05:14.671Z,100452.42
2018-08-20T09:07:43.734Z,100444.82
2018-08-20T09:10:13.350Z,100447.02
2018-08-20T09:12:42.020Z,100447.56
2018-08-20T09:15:13.236Z,100453.01
2018-08-20T09:17:42.161Z,100445.45
2018-08-20T09:20:13.311Z,100447.64
2018-08-20T09:22:41.984Z,100451.92
2018-08-20T09:25:12.206Z,100454.69
2018-08-20T09:27:41.931Z,100453.01
2018-08-20T09:30:17.576Z,100450.75
2018-08-20T09:32:47.496Z,100447.13
2018-08-20T09:35:16.575Z,100450.81
2018-08-20T09:37:45.201Z,100474.55
2018-08-20T09:40:14.163Z,100471.81
2018-08-20T09:42:44.062Z,100478.22
2018-08-20T09:45:13.011Z,100486.91
2018-08-20T09:47:43.230Z,100489.72
2018-08-20T09:50:15.196Z,100480.83
2018-08-20T09:52:44.482Z,100478.52
2018-08-20T09:55:13.622Z,100481.25
2018-08-20T09:57:42.318Z,100484.42
2018-08-20T10:00:20.367Z,100478.98
2018-08-20T10:02:49.935Z,100472.39
2018-08-20T10:05:19.229Z,100485.22
2018-08-20T10:07:48.626Z,100481.77
2018-08-20T10:10:18.033Z,100479.00
2018-08-20T10:12:47.744Z,100488.03
2018-08-20T10:15:16.429Z,100475.20
2018-08-20T10:17:45.509Z,100484.45
2018-08-20T10:20:15.751Z,100471.48
2018-08-20T10:22:44.638Z,100469.85
2018-08-20T10:25:13.320Z,100476.98
2018-08-20T10:27:41.887Z,100477.60
2018-08-20T10:30:11.741Z,100460.95
2018-08-20T10:32:40.400Z,100476.17
2018-08-20T10:35:09.140Z,100477.13
2018-08-20T10:37:37.775Z,100469.23
2018-08-20T10:40:07.732Z,100473.92
2018-08-20T10:42:36.719Z,100477.17
2018-08-20T10:45:12.627Z,100484.64
2018-08-20T10:47:41.319Z,100489.29
2018-08-20T10:50:14.210Z,100499.72
2018-08-20T10:52:44.375Z,100505.19
2018-08-20T10:55:13.048Z,100506.25
2018-08-20T10:57:42.002Z,100508.34
2018-08-20T11:00:11.591Z,100512.39
2018-08-20T11:02:40.963Z,100509.70
2018-08-20T11:05:11.897Z,100511.87
2018-08-20T11:07:41.143Z,100510.88
2018-08-20T11:10:10.203Z,100515.38
2018-08-20T11:12:39.024Z,100522.74
2018-08-20T11:15:09.140Z,100518.78
2018-08-20T11:17:38.757Z,100522.37
2018-08-20T11:20:10.566Z,100532.75
2018-08-20T11:22:39.379Z,100532.89
2018-08-20T11:25:09.050Z,100519.31
2018-08-20T11:27:38.175Z,100523.47
2018-08-20T11:30:07.942Z,100527.27
2018-08-20T11:32:36.630Z,100529.07
2018-08-20T11:35:05.531Z,100528.02
2018-08-20T11:37:34.180Z,100528.78
2018-08-20T11:40:03.038Z,100539.36
2018-08-20T11:42:32.322Z,100547.98
2018-08-20T11:45:01.568Z,100556.02
2018-08-20T11:47:30.245Z,100534.44
2018-08-20T11:49:59.443Z,100549.00
2018-08-20T11:52:28.308Z,100557.81
2018-08-20T11:54:56.916Z,100547.94
2018-08-20T11:57:25.438Z,100558.28
2018-08-20T11:59:54.169Z,100559.09
2018-08-20T12:02:23.732Z,100557.08
2018-08-20T12:04:52.534Z,100551.55
2018-08-20T12:07:21.120Z,100552.64
2018-08-20T12:09:49.891Z,100553.35
2018-08-20T12:12:18.941Z,100553.81
2018-08-20T12:14:47.500Z,100565.45
2018-08-20T12:17:16.988Z,100572.72
2018-08-20T12:19:45.539Z,100582.33
2018-08-20T12:22:14.134Z,100581.61
2018-08-20T12:24:42.674Z,100586.13
2018-08-20T12:27:11.360Z,100586.59
2018-08-20T12:29:40.015Z,100581.32
2018-08-20T12:32:08.881Z,100590.13
2018-08-20T12:34:37.431Z,100583.58
2018-08-20T12:37:06.067Z,100596.45
2018-08-20T12:39:34.685Z,100602.49
2018-08-20T12:42:03.735Z,100601.31
2018-08-20T12:44:32.361Z,100609.14
2018-08-20T12:47:00.851Z,100617.20
2018-08-20T12:49:29.939Z,100616.28
2018-08-20T12:51:58.574Z,100619.93
2018-08-20T12:54:27.381Z,100616.98
2018-08-20T12:56:57.529Z,100626.84
2018-08-20T12:59:26.111Z,100626.36
2018-08-20T13:01:56.028Z,100633.78
2018-08-20T13:04:24.610Z,100632.06
2018-08-20T13:06:54.116Z,100631.61
2018-08-20T13:09:22.698Z,100638.04
2018-08-20T13:11:51.385Z,100637.77
2018-08-20T13:14:20.070Z,100648.57
2018-08-20T13:16:48.612Z,100649.19
2018-08-20T13:19:18.112Z,100645.64
2018-08-20T13:21:46.741Z,100643.76
2018-08-20T13:24:15.421Z,100651.70
2018-08-20T13:26:43.934Z,100650.22
2018-08-20T13:29:12.589Z,100652.94
2018-08-20T13:31:41.667Z,100640.06
2018-08-20T13:34:10.275Z,100642.88
2018-08-20T13:36:39.057Z,100652.18
2018-08-20T13:39:09.387Z,100647.06
2018-08-20T13:41:38.618Z,100658.05
2018-08-20T13:44:07.578Z,100655.09
2018-08-20T13:46:36.665Z,100653.06
2018-08-20T13:49:05.558Z,100655.47
2018-08-20T13:51:34.170Z,100662.59
2018-08-20T13:54:02.822Z,100657.88
2018-08-20T13:56:31.423Z,100659.30
2018-08-20T13:59:00.088Z,100628.05
2018-08-20T14:01:28.774Z,100655.94
2018-08-20T14:03:58.535Z,100585.69
2018-08-20T14:06:27.787Z,100650.59
2018-08-20T14:08:56.367Z,100650.92
2018-08-20T14:11:24.990Z,100648.94
2018-08-20T14:13:53.551Z,100651.86
2018-08-20T14:16:22.183Z,100645.44
2018-08-20T14:18:50.875Z,100650.63
2018-08-20T14:21:19.486Z,100647.75
2018-08-20T14:23:49.147Z,100660.14
2018-08-20T14:26:18.392Z,100667.19
2018-08-20T14:28:46.961Z,100677.53
2018-08-20T14:31:15.665Z,100671.86
2018-08-20T14:33:44.241Z,100676.95
2018-08-20T14:36:12.927Z,100687.20
2018-08-20T14:38:41.510Z,100687.06
2018-08-20T14:41:10.113Z,100684.27
2018-08-20T14:43:38.766Z,100679.48
2018-08-20T14:46:12.685Z,100684.27
2018-08-20T14:48:41.250Z,100684.91
2018-08-20T14:51:09.903Z,100692.69
2018-08-20T14:53:38.630Z,100686.61
2018-08-20T14:56:07.772Z,100687.06
2018-08-20T14:58:36.419Z,100684.53
2018-08-20T15:01:05.071Z,100688.39
2018-08-20T15:03:33.688Z,100693.16
2018-08-20T15:06:02.508Z,100691.89
2018-08-20T15:08:31.594Z,100705.63
2018-08-20T15:11:00.175Z,100695.05
2018-08-20T15:13:29.711Z,100697.05
2018-08-20T15:15:58.446Z,100700.59
2018-08-20T15:18:27.031Z,100698.25
2018-08-20T15:20:55.531Z,100699.11
2018-08-20T15:23:24.148Z,100694.98
2018-08-20T15:25:52.695Z,100701.95
2018-08-20T15:28:21.287Z,100699.73
2018-08-20T15:30:49.840Z,100709.02
2018-08-20T15:33:18.423Z,100692.95
2018-08-20T15:35:47.006Z,100710.17
2018-08-20T15:38:15.644Z,100708.56
2018-08-20T15:40:44.497Z,100714.11
2018-08-20T15:43:13.096Z,100707.23
2018-08-20T15:45:43.290Z,100702.06
2018-08-20T15:48:11.974Z,100712.66
2018-08-20T15:50:40.654Z,100700.80
2018-08-20T15:53:09.321Z,100713.92
2018-08-20T15:55:38.034Z,100707.23
2018-08-20T15:58:06.607Z,100710.92
2018-08-20T16:00:35.219Z,100706.34
2018-08-20T16:03:03.836Z,100704.89
2018-08-20T16:05:33.126Z,100700.27
2018-08-20T16:08:01.759Z,100697.13
2018-08-20T16:10:30.401Z,100705.89
2018-08-20T16:12:59.550Z,100707.63
2018-08-20T16:15:28.122Z,100714.38
2018-08-20T16:17:56.705Z,100708.03
2018-08-20T16:20:26.105Z,100703.94
2018-08-20T16:22:54.681Z,100715.18
2018-08-20T16:25:23.947Z,100711.70
2018-08-20T16:27:52.675Z,100715.66
2018-08-20T16:30:21.215Z,100706.48
2018-08-20T16:32:49.764Z,100715.07
2018-08-20T16:35:18.368Z,100708.11
2018-08-20T16:37:47.005Z,100698.66
2018-08-20T16:40:15.694Z,100699.52
2018-08-20T16:42:44.376Z,100697.05
2018-08-20T16:45:13.737Z,100698.13
2018-08-20T16:47:42.292Z,100704.55
2018-08-20T16:50:12.472Z,100702.94
2018-08-20T16:52:41.470Z,100697.66
2018-08-20T16:55:10.769Z,100698.31
2018-08-20T16:57:39.456Z,100703.75
2018-08-20T17:00:10.355Z,100698.50
2018-08-20T17:02:40.671Z,100698.50
2018-08-20T17:05:10.890Z,100719.71
2018-08-20T17:07:39.591Z,100709.27
2018-08-20T17:10:09.931Z,100708.28
2018-08-20T17:12:38.633Z,100715.23
2018-08-20T17:15:12.133Z,100716.53
2018-08-20T17:17:41.024Z,100723.46
2018-08-20T17:20:11.227Z,100715.61
2018-08-20T17:22:40.259Z,100726.91
2018-08-20T17:25:09.402Z,100727.55
2018-08-20T17:27:38.014Z,100730.84
2018-08-20T17:30:08.548Z,100718.97
2018-08-20T17:32:37.297Z,100726.17
2018-08-20T17:35:08.371Z,100733.72
2018-08-20T17:37:37.016Z,100732.64
2018-08-20T17:40:09.223Z,100733.66
2018-08-20T17:42:37.909Z,100730.98
2018-08-20T17:45:08.135Z,100735.88
2018-08-20T17:47:39.131Z,100736.64
2018-08-20T17:50:17.495Z,100741.75
2018-08-20T17:52:46.169Z,100724.28
2018-08-20T17:55:14.889Z,100728.89
2018-08-20T17:57:43.437Z,100722.61
2018-08-20T18:00:30.787Z,100730.02
2018-08-20T18:02:59.802Z,100730.36
2018-08-20T18:05:28.366Z,100735.59
2018-08-20T18:07:57.103Z,100738.41
2018-08-20T18:10:25.767Z,100745.94
2018-08-20T18:12:54.495Z,100749.72
2018-08-20T18:15:23.201Z,100762.58
2018-08-20T18:17:51.798Z,100761.48
2018-08-20T18:20:20.547Z,100770.72
2018-08-20T18:22:49.129Z,100766.81
2018-08-20T18:25:17.712Z,100762.22
2018-08-20T18:27:46.348Z,100775.94
2018-08-20T18:30:17.385Z,100777.23
2018-08-20T18:32:46.794Z,100780.66
2018-08-20T18:35:22.838Z,100781.88
2018-08-20T18:37:52.284Z,100789.48
2018-08-20T18:40:20.858Z,100786.31
2018-08-20T18:42:49.407Z,100785.09
2018-08-20T18:45:18.027Z,100784.00
2018-08-20T18:47:46.595Z,100790.55
2018-08-20T18:50:15.215Z,100795.38
2018-08-20T18:52:43.797Z,100797.80
2018-08-20T18:55:12.523Z,100798.00
2018-08-20T18:57:41.169Z,100798.46
2018-08-20T19:00:13.366Z,100800.61
2018-08-20T19:02:49.732Z,100809.46
2018-08-20T19:05:18.999Z,100803.14
2018-08-20T19:07:48.065Z,100800.81
2018-08-20T19:10:20.967Z,100799.83
2018-08-20T19:12:49.766Z,100809.11
2018-08-20T19:15:30.228Z,100809.95
2018-08-20T19:17:59.675Z,100818.53
2018-08-20T19:20:28.221Z,100811.73
2018-08-20T19:22:56.857Z,100812.91
2018-08-20T19:25:25.404Z,100798.73
2018-08-20T19:27:54.065Z,100798.56
2018-08-20T19:30:24.389Z,100812.20
2018-08-20T19:32:53.037Z,100813.73
2018-08-20T19:35:21.594Z,100815.97
2018-08-20T19:37:50.341Z,100827.28
2018-08-20T19:40:18.973Z,100832.69
2018-08-20T19:42:47.814Z,100839.60
2018-08-20T19:45:16.499Z,100841.58
2018-08-20T19:47:46.106Z,100839.05
2018-08-20T19:50:14.691Z,100838.26
2018-08-20T19:52:43.519Z,100825.48
2018-08-20T19:55:12.847Z,100816.84
2018-08-20T19:57:41.413Z,100820.39
2018-08-20T20:00:11.842Z,100819.48
2018-08-20T20:02:42.412Z,100824.86
2018-08-20T20:05:13.763Z,100829.63
2018-08-20T20:07:57.298Z,100825.59
2018-08-20T20:10:25.881Z,100825.90
2018-08-20T20:12:56.206Z,100822.69
2018-08-20T20:15:25.709Z,100824.22
2018-08-20T20:17:55.899Z,100825.76
2018-08-20T20:20:24.670Z,100833.11
2018-08-20T20:22:53.404Z,100834.34
2018-08-20T20:25:21.987Z,100837.41
2018-08-20T20:27:50.535Z,100824.17
2018-08-20T20:30:19.258Z,100841.81
2018-08-20T20:32:47.899Z,100850.95
2018-08-20T20:35:16.466Z,100853.05
2018-08-20T20:37:45.047Z,100857.79
2018-08-20T20:40:13.930Z,100855.06
2018-08-20T20:42:42.854Z,100847.98
2018-08-20T20:45:11.672Z,100857.95
2018-08-20T20:47:40.358Z,100854.63
2018-08-20T20:50:08.911Z,100862.79
2018-08-20T20:52:37.599Z,100879.88
2018-08-20T20:55:06.322Z,100885.95
2018-08-20T20:57:34.975Z,100895.44
2018-08-20T21:00:03.539Z,100891.94
2018-08-20T21:02:32.129Z,100889.97
2018-08-20T21:05:08.938Z,100891.12
2018-08-20T21:07:37.887Z,100884.86
2018-08-20T21:10:07.335Z,100882.95
2018-08-20T21:12:35.963Z,100885.03
2018-08-20T21:15:05.507Z,100892.45
2018-08-20T21:17:35.396Z,100882.57
2018-08-20T21:20:04.023Z,100886.92
2018-08-20T21:22:35.477Z,100882.77
2018-08-20T21:25:05.454Z,100883.32
2018-08-20T21:27:34.170Z,100887.11
2018-08-20T21:30:02.868Z,100892.98
2018-08-20T21:32:31.542Z,100895.08
2018-08-20T21:35:00.226Z,100898.44
2018-08-20T21:37:28.852Z,100900.03
2018-08-20T21:39:57.450Z,100905.16
2018-08-20T21:42:31.198Z,100895.28
2018-08-20T21:44:59.948Z,100897.25
2018-08-20T21:47:30.259Z,100901.13
2018-08-20T21:49:58.996Z,100900.07
2018-08-20T21:52:27.530Z,100904.05
2018-08-20T21:54:56.158Z,100910.86
2018-08-20T21:57:24.745Z,100905.19
2018-08-20T22:00:04.154Z,100912.36
2018-08-20T22:02:33.874Z,100914.82
2018-08-20T22:05:02.618Z,100911.57
2018-08-20T22:07:31.200Z,100915.72
2018-08-20T22:09:59.814Z,100913.25
2018-08-20T22:12:28.427Z,100912.50
2018-08-20T22:14:56.991Z,100911.81
2018-08-20T22:17:30.303Z,100918.91
2018-08-20T22:19:59.454Z,100918.16
2018-08-20T22:22:28.700Z,100927.12
2018-08-20T22:25:00.866Z,100926.46
2018-08-20T22:27:30.618Z,100938.39
2018-08-20T22:30:01.840Z,100941.58
2018-08-20T22:32:30.994Z,100947.83
2018-08-20T22:35:00.065Z,100949.42
2018-08-20T22:37:28.630Z,100959.70
2018-08-20T22:40:02.397Z,100959.70
2018-08-20T22:42:42.683Z,100961.36
2018-08-20T22:45:13.722Z,100957.19
2018-08-20T22:47:42.425Z,100958.77
2018-08-20T22:50:11.017Z,100974.75
2018-08-20T22:52:43.283Z,100962.63
2018-08-20T22:55:12.788Z,100977.90
2018-08-20T22:57:48.897Z,100983.60
2018-08-20T23:00:22.730Z,100986.42
2018-08-20T23:02:52.555Z,100984.69
2018-08-20T23:05:21.198Z,100980.51
2018-08-20T23:07:50.009Z,100979.72
2018-08-20T23:10:18.775Z,100986.51
2018-08-20T23:12:47.958Z,100983.94
2018-08-20T23:15:16.579Z,100977.81
2018-08-20T23:17:45.134Z,100979.30
2018-08-20T23:20:22.674Z,100986.09
2018-08-20T23:22:51.261Z,100998.55
2018-08-20T23:25:19.840Z,101003.05
2018-08-20T23:27:50.119Z,101004.95
2018-08-20T23:30:19.662Z,100998.88
2018-08-20T23:32:48.607Z,100997.33
2018-08-20T23:35:17.196Z,101001.47
2018-08-20T23:37:46.291Z,101000.30
2018-08-20T23:40:14.919Z,100988.14
2018-08-20T23:42:44.071Z,100985.25
2018-08-20T23:45:12.907Z,100972.45
2018-08-20T23:47:41.487Z,101000.91
2018-08-20T23:50:10.055Z,101006.66
2018-08-20T23:52:38.608Z,101011.20
2018-08-20T23:55:07.295Z,101007.47
2018-08-20T23:57:35.978Z,101012.92
